createdAt,value
2017-12-21T00:03:50.520Z,0
2017-12-21T00:13:50.538Z,0
2017-12-21T00:23:50.662Z,0
2017-12-21T00:33:50.536Z,0
2017-12-21T00:43:50.517Z,4
2017-12-21T00:53:50.444Z,0
2017-12-21T01:03:50.526Z,0
2017-12-21T01:13:50.467Z,0
2017-12-21T01:23:50.522Z,0
2017-12-21T01:33:50.472Z,0
2017-12-21T01:43:50.556Z,0
2017-12-21T01:53:50.558Z,0
2017-12-21T02:03:50.606Z,0
2017-12-21T02:13:50.558Z,0
2017-12-21T02:23:50.598Z,0
2017-12-21T02:33:50.554Z,0
2017-12-21T02:43:50.619Z,0
2017-12-21T02:53:50.596Z,0
2017-12-21T03:03:50.622Z,0
2017-12-21T03:13:50.575Z,0
2017-12-21T03:23:50.835Z,0
2017-12-21T03:33:50.674Z,0
2017-12-21T03:43:50.690Z,0
2017-12-21T03:53:50.638Z,0
2017-12-21T04:03:50.640Z,0
2017-12-21T04:13:50.677Z,0
2017-12-21T04:23:50.631Z,0
2017-12-21T04:33:50.687Z,0
2017-12-21T04:43:50.673Z,0
2017-12-21T04:53:51.486Z,0
2017-12-21T05:03:50.650Z,0
2017-12-21T05:13:50.779Z,0
2017-12-21T05:23:50.709Z,0
2017-12-21T05:33:50.755Z,0
2017-12-21T05:43:50.741Z,0
2017-12-21T05:53:50.690Z,0
2017-12-21T06:03:50.719Z,0
2017-12-21T06:13:50.713Z,0
2017-12-21T06:23:50.811Z,0
2017-12-21T06:33:50.740Z,0
2017-12-21T06:43:50.825Z,0
2017-12-21T06:53:50.775Z,4
2017-12-21T07:03:50.860Z,0
2017-12-21T07:13:50.781Z,8
2017-12-21T07:23:50.981Z,32
2017-12-21T07:33:51.075Z,68
2017-12-21T07:43:50.969Z,128
2017-12-21T07:53:50.975Z,304
2017-12-21T08:03:50.927Z,532
2017-12-21T08:13:50.860Z,724
2017-12-21T08:23:50.827Z,1084
2017-12-21T08:33:50.875Z,1136
2017-12-21T08:43:50.830Z,1224
2017-12-21T08:53:51.087Z,1504
2017-12-21T09:03:50.898Z,1576
2017-12-21T09:13:51.026Z,1496
2017-12-21T09:23:50.902Z,1752
2017-12-21T09:33:50.994Z,2112
2017-12-21T09:43:50.900Z,1952
2017-12-21T09:53:50.980Z,1788
2017-12-21T10:03:50.946Z,2880
2017-12-21T10:13:50.991Z,2188
2017-12-21T10:23:50.956Z,1912
2017-12-21T10:33:51.054Z,1672
2017-12-21T10:43:50.959Z,1436
2017-12-21T10:53:51.057Z,1700
2017-12-21T11:03:51.022Z,2476
2017-12-21T11:13:51.071Z,3368
2017-12-21T11:23:51.026Z,3608
2017-12-21T11:33:51.015Z,3648
2017-12-21T11:43:51.066Z,3592
2017-12-21T11:53:51.023Z,4764
2017-12-21T12:03:51.077Z,3560
2017-12-21T12:13:51.080Z,2468
2017-12-21T12:23:51.164Z,2904
2017-12-21T12:33:51.113Z,2228
2017-12-21T12:43:51.158Z,3056
2017-12-21T12:53:51.090Z,3080
2017-12-21T13:03:51.235Z,2612
2017-12-21T13:13:51.108Z,1788
2017-12-21T13:23:51.246Z,2584
2017-12-21T13:33:51.157Z,2328
2017-12-21T13:43:51.190Z,1340
2017-12-21T13:53:51.176Z,1044
2017-12-21T14:03:51.207Z,884
2017-12-21T14:13:51.291Z,604
2017-12-21T14:23:51.250Z,484
2017-12-21T14:33:51.323Z,316
2017-12-21T14:43:51.738Z,252
2017-12-21T14:53:51.242Z,188
2017-12-21T15:03:51.356Z,100
2017-12-21T15:13:52.327Z,64
2017-12-21T15:23:51.552Z,32
2017-12-21T15:33:51.441Z,16
2017-12-21T15:43:51.503Z,4
2017-12-21T15:53:51.867Z,4
2017-12-21T16:03:51.680Z,4
2017-12-21T16:13:51.585Z,0
2017-12-21T16:23:51.294Z,4
2017-12-21T16:33:51.298Z,0
2017-12-21T16:43:51.293Z,0
2017-12-21T16:53:51.372Z,4
2017-12-21T17:03:51.321Z,0
2017-12-21T17:13:51.420Z,0
2017-12-21T17:23:51.359Z,4
2017-12-21T17:33:51.433Z,0
2017-12-21T17:43:51.356Z,0
2017-12-21T17:53:51.352Z,0
2017-12-21T18:03:51.426Z,0
2017-12-21T18:13:51.757Z,4
2017-12-21T18:23:51.415Z,0
2017-12-21T18:33:52.654Z,0
2017-12-21T18:43:52.242Z,0
2017-12-21T18:53:51.997Z,0
2017-12-21T19:03:51.876Z,0
2017-12-21T19:13:51.846Z,0
2017-12-21T19:23:52.096Z,0
2017-12-21T19:33:52.646Z,0
2017-12-21T19:43:54.077Z,0
2017-12-21T19:53:51.872Z,0
2017-12-21T20:03:53.647Z,0
2017-12-21T20:13:52.469Z,0
2017-12-21T20:23:53.414Z,0
2017-12-21T20:33:53.429Z,0
2017-12-21T20:43:52.678Z,0
2017-12-21T20:53:53.135Z,0
2017-12-21T21:03:53.154Z,0
2017-12-21T21:13:53.177Z,0
2017-12-21T21:23:52.629Z,0
2017-12-21T21:33:53.228Z,0
2017-12-21T21:43:52.172Z,0
2017-12-21T21:53:51.420Z,0
2017-12-21T22:03:51.468Z,0
2017-12-21T22:13:51.479Z,0
2017-12-21T22:23:51.415Z,0
2017-12-21T22:33:51.447Z,0
2017-12-21T22:43:53.478Z,0
2017-12-21T22:53:55.114Z,0
2017-12-21T23:03:51.454Z,0
2017-12-21T23:13:51.375Z,0
2017-12-21T23:23:51.503Z,0
2017-12-21T23:33:51.472Z,0
2017-12-21T23:43:59.560Z,0
2017-12-21T23:53:51.451Z,0
